Urb Davila & Llenza, Puerto Rico
Current Conditions -  °F | °C
As of 8:56 AM on Wednesday 22 Oct 2014 (Local Time) from TJSJ Reporting Station
Scattered Clouds Scattered Clouds  
Wind Chill: 85°   Ceiling: Unl
Heat Index: 93°   Visibility: 10mi
Dew Point: 75°   Wind: 10mph
Humidity: 72%   Direction: 90°E
Pressure: 29.99"   Gusts: NA
Location:  18.4238°N, 66.0515°W
Report Text: TJSJ 221256Z 09009KT 10SM FEW030 SCT065 29/24 A2999 RMK AO2 SLP153 T02940239
Loading
Personal Weather Stations






























Interactive Weather Map
Tropical Storm Tracking
New forecast layout! Learn more

10-Day Weather Forecast

Advertisements
Track Severe Weather on mobile